createdAt,value
2023-03-05T00:01:29.969Z,57.84
2023-03-05T00:03:56.268Z,58.29
2023-03-05T00:06:22.584Z,58.28
2023-03-05T00:08:48.845Z,57.21
2023-03-05T00:11:15.091Z,55.91
2023-03-05T00:14:01.331Z,55.92
2023-03-05T00:16:27.602Z,55.13
2023-03-05T00:18:53.840Z,56.57
2023-03-05T00:21:20.102Z,56.33
2023-03-05T00:23:46.333Z,55.38
2023-03-05T00:26:12.553Z,55.84
2023-03-05T00:28:38.816Z,57.25
2023-03-05T00:31:05.082Z,58.42
2023-03-05T00:33:31.320Z,60.59
2023-03-05T00:35:57.649Z,60.52
2023-03-05T00:38:23.889Z,59.85
2023-03-05T00:40:50.135Z,57.72
2023-03-05T00:43:16.401Z,54.90
2023-03-05T00:45:42.698Z,56.45
2023-03-05T00:48:08.951Z,57.91
2023-03-05T00:50:35.232Z,57.06
2023-03-05T00:53:01.576Z,58.59
2023-03-05T00:55:27.836Z,59.40
2023-03-05T00:57:54.231Z,59.70
2023-03-05T01:00:20.497Z,60.44
2023-03-05T01:02:46.819Z,60.77
2023-03-05T01:05:13.147Z,60.97
2023-03-05T01:07:39.424Z,60.83
2023-03-05T01:10:05.669Z,60.58
2023-03-05T01:12:31.933Z,60.41
2023-03-05T01:14:58.228Z,60.38
2023-03-05T01:17:24.484Z,60.29
2023-03-05T01:19:50.748Z,59.81
2023-03-05T01:22:16.985Z,58.56
2023-03-05T01:24:43.541Z,58.75
2023-03-05T01:27:09.844Z,59.56
2023-03-05T01:29:36.124Z,60.11
2023-03-05T01:32:02.457Z,59.45
2023-03-05T01:34:28.785Z,60.08
2023-03-05T01:36:55.064Z,60.31
2023-03-05T01:39:21.321Z,60.63
2023-03-05T01:41:47.570Z,60.97
2023-03-05T01:44:13.813Z,61.19
2023-03-05T01:46:40.061Z,61.01
2023-03-05T01:49:06.298Z,61.35
2023-03-05T01:51:32.538Z,61.60
2023-03-05T01:53:58.777Z,61.06
2023-03-05T01:56:25.189Z,60.79
2023-03-05T01:58:51.442Z,60.99
2023-03-05T02:01:17.742Z,60.36
2023-03-05T02:03:44.056Z,60.33
2023-03-05T02:06:10.322Z,60.54
2023-03-05T02:08:36.557Z,60.46
2023-03-05T02:11:02.804Z,60.47
2023-03-05T02:13:29.068Z,60.56
2023-03-05T02:15:55.314Z,60.32
2023-03-05T02:18:21.556Z,60.70
2023-03-05T02:20:47.800Z,60.78
2023-03-05T02:23:14.043Z,60.55
2023-03-05T02:25:40.335Z,61.15
2023-03-05T02:28:06.668Z,60.81
2023-03-05T02:30:32.964Z,60.23
2023-03-05T02:32:59.210Z,59.94
2023-03-05T02:35:25.561Z,59.02
2023-03-05T02:37:51.934Z,58.59
2023-03-05T02:40:18.163Z,56.90
2023-03-05T02:42:44.431Z,55.78
2023-03-05T02:45:10.665Z,55.11
2023-03-05T02:47:36.904Z,55.12
2023-03-05T02:50:03.177Z,54.03
2023-03-05T02:52:29.497Z,55.78
2023-03-05T02:54:55.758Z,54.50
2023-03-05T02:57:22.011Z,56.54
2023-03-05T02:59:48.280Z,55.72
2023-03-05T03:02:14.548Z,56.54
2023-03-05T03:04:40.784Z,57.76
2023-03-05T03:07:07.050Z,59.08
2023-03-05T03:09:33.309Z,60.73
2023-03-05T03:11:59.566Z,60.05
2023-03-05T03:14:25.809Z,59.82
2023-03-05T03:16:52.093Z,59.96
2023-03-05T03:19:18.367Z,58.59
2023-03-05T03:21:44.606Z,59.74
2023-03-05T03:24:10.853Z,60.70
2023-03-05T03:26:37.123Z,59.36
2023-03-05T03:29:03.439Z,59.72
2023-03-05T03:31:29.670Z,59.64
2023-03-05T03:33:55.947Z,58.24
2023-03-05T03:36:22.212Z,56.71
2023-03-05T03:38:48.483Z,56.33
2023-03-05T03:41:14.743Z,53.67
2023-03-05T03:43:40.992Z,54.20
2023-03-05T03:46:07.366Z,55.74
2023-03-05T03:48:33.722Z,57.52
2023-03-05T03:50:59.977Z,57.03
2023-03-05T03:53:26.259Z,54.76
2023-03-05T03:55:52.524Z,55.32
2023-03-05T03:58:18.811Z,54.43
2023-03-05T04:00:45.106Z,52.39
2023-03-05T04:03:11.382Z,52.48
2023-03-05T04:05:37.656Z,51.50
2023-03-05T04:08:03.917Z,50.17
2023-03-05T04:10:30.182Z,50.85
2023-03-05T04:12:56.466Z,50.54
2023-03-05T04:15:22.767Z,51.83
2023-03-05T04:17:49.029Z,52.79
2023-03-05T04:20:15.287Z,54.16
2023-03-05T04:22:41.529Z,53.55
2023-03-05T04:25:07.790Z,53.79
2023-03-05T04:27:34.131Z,53.15
2023-03-05T04:30:00.471Z,52.75
2023-03-05T04:32:26.805Z,52.93
2023-03-05T04:34:53.143Z,54.29
2023-03-05T04:37:19.446Z,54.92
2023-03-05T04:39:45.738Z,51.09
2023-03-05T04:42:12.030Z,49.15
2023-03-05T04:44:38.319Z,48.43
2023-03-05T04:47:04.550Z,48.16
2023-03-05T04:49:30.772Z,50.97
2023-03-05T04:51:57.138Z,50.95
2023-03-05T04:54:23.375Z,50.05
2023-03-05T04:56:49.614Z,48.85
2023-03-05T04:59:15.857Z,50.31
2023-03-05T05:01:42.184Z,50.73
2023-03-05T05:04:08.517Z,50.80
2023-03-05T05:06:34.886Z,49.74
2023-03-05T05:09:01.157Z,49.54
2023-03-05T05:11:27.394Z,50.67
2023-03-05T05:13:53.658Z,50.96
2023-03-05T05:16:19.966Z,53.28
2023-03-05T05:18:46.270Z,54.96
2023-03-05T05:21:12.513Z,55.63
2023-03-05T05:23:38.763Z,53.74
2023-03-05T05:26:05.000Z,53.58
2023-03-05T05:28:31.274Z,54.84
2023-03-05T05:30:57.534Z,55.50
2023-03-05T05:33:23.773Z,56.94
2023-03-05T05:35:50.052Z,57.38
2023-03-05T05:38:16.356Z,55.23
2023-03-05T05:40:42.606Z,53.44
2023-03-05T05:43:08.902Z,52.75
2023-03-05T05:45:35.300Z,52.73
2023-03-05T05:48:01.627Z,54.06
2023-03-05T05:50:27.901Z,54.23
2023-03-05T05:52:54.173Z,54.99
2023-03-05T05:55:20.417Z,54.68
2023-03-05T05:57:46.706Z,54.44
2023-03-05T06:00:13.016Z,54.00
2023-03-05T06:02:39.341Z,51.89
2023-03-05T06:05:05.659Z,51.66
2023-03-05T06:07:31.934Z,51.02
2023-03-05T06:09:58.199Z,51.37
2023-03-05T06:12:24.489Z,49.96
2023-03-05T06:14:50.794Z,50.51
2023-03-05T06:17:28.760Z,51.03
2023-03-05T06:19:56.581Z,51.96
2023-03-05T06:22:22.854Z,50.76
2023-03-05T06:24:49.105Z,49.45
2023-03-05T06:27:15.644Z,49.42
2023-03-05T06:29:41.878Z,48.76
2023-03-05T06:32:08.145Z,49.45
2023-03-05T06:34:34.407Z,49.26
2023-03-05T06:37:00.652Z,49.77
2023-03-05T06:39:28.309Z,49.62
2023-03-05T06:41:54.661Z,48.34
2023-03-05T06:44:20.924Z,48.65
2023-03-05T06:46:47.187Z,48.89
2023-03-05T06:49:13.584Z,49.54
2023-03-05T06:51:39.897Z,50.31
2023-03-05T06:54:06.174Z,49.09
2023-03-05T06:56:32.466Z,49.81
2023-03-05T06:58:58.785Z,50.37
2023-03-05T07:01:25.091Z,48.97
2023-03-05T07:03:51.369Z,49.42
2023-03-05T07:06:17.617Z,50.71
2023-03-05T07:08:43.872Z,51.69
2023-03-05T07:11:10.175Z,51.39
2023-03-05T07:13:36.469Z,52.62
2023-03-05T07:16:02.728Z,53.20
2023-03-05T07:18:29.064Z,52.82
2023-03-05T07:20:55.405Z,52.74
2023-03-05T07:23:24.185Z,51.94
2023-03-05T07:25:50.473Z,52.22
2023-03-05T07:28:16.753Z,53.16
2023-03-05T07:30:43.848Z,53.60
2023-03-05T07:33:10.112Z,54.68
2023-03-05T07:35:36.435Z,55.31
2023-03-05T07:38:02.716Z,54.66
2023-03-05T07:40:28.972Z,51.58
2023-03-05T07:42:55.215Z,51.20
2023-03-05T07:45:21.444Z,50.82
2023-03-05T07:47:47.737Z,50.50
2023-03-05T07:50:14.034Z,50.32
2023-03-05T07:52:40.303Z,49.26
2023-03-05T07:55:06.603Z,48.12
2023-03-05T07:57:32.905Z,47.54
2023-03-05T07:59:59.168Z,47.66
2023-03-05T08:02:25.532Z,47.21
2023-03-05T08:04:51.865Z,48.01
2023-03-05T08:07:18.151Z,47.08
2023-03-05T08:09:44.437Z,46.71
2023-03-05T08:12:10.749Z,46.79
2023-03-05T08:14:37.013Z,46.85
2023-03-05T08:17:03.268Z,46.69
2023-03-05T08:19:29.541Z,47.86
2023-03-05T08:21:56.522Z,47.27
2023-03-05T08:24:22.801Z,47.98
2023-03-05T08:26:49.090Z,48.12
2023-03-05T08:29:15.438Z,47.40
2023-03-05T08:31:41.759Z,47.46
2023-03-05T08:34:08.076Z,48.45
2023-03-05T08:36:34.327Z,48.13
2023-03-05T08:39:00.579Z,48.87
2023-03-05T08:41:26.896Z,48.99
2023-03-05T08:43:53.205Z,49.26
2023-03-05T08:46:19.479Z,49.24
2023-03-05T08:48:45.728Z,49.88
2023-03-05T08:51:11.995Z,49.78
2023-03-05T08:53:38.233Z,50.25
2023-03-05T08:56:04.499Z,50.29
2023-03-05T08:58:30.819Z,50.14
2023-03-05T09:00:57.113Z,50.04
2023-03-05T09:03:23.554Z,49.74
2023-03-05T09:05:49.869Z,50.38
2023-03-05T09:08:16.110Z,50.23
2023-03-05T09:10:42.384Z,50.58
2023-03-05T09:13:08.737Z,50.35
2023-03-05T09:15:35.010Z,50.32
2023-03-05T09:18:01.319Z,50.35
2023-03-05T09:20:27.595Z,50.77
2023-03-05T09:22:53.915Z,51.09
2023-03-05T09:25:20.159Z,50.91
2023-03-05T09:27:46.435Z,51.65
2023-03-05T09:30:12.709Z,51.43
2023-03-05T09:32:39.017Z,52.02
2023-03-05T09:35:05.344Z,52.07
2023-03-05T09:37:31.628Z,52.10
2023-03-05T09:39:57.869Z,52.58
2023-03-05T09:42:24.115Z,52.48
2023-03-05T09:44:50.407Z,52.28
2023-03-05T09:47:16.660Z,52.30
2023-03-05T09:49:42.950Z,52.56
2023-03-05T09:52:09.250Z,52.22
2023-03-05T09:54:35.537Z,52.31
2023-03-05T09:57:01.853Z,51.92
2023-03-05T09:59:28.153Z,52.50
2023-03-05T10:01:54.382Z,52.67
2023-03-05T10:04:20.747Z,53.55
2023-03-05T10:06:47.051Z,53.52
2023-03-05T10:09:13.335Z,53.75
2023-03-05T10:11:39.581Z,53.09
2023-03-05T10:14:05.827Z,52.45
2023-03-05T10:16:32.170Z,51.80
2023-03-05T10:18:58.453Z,51.48
2023-03-05T10:21:24.734Z,51.56
2023-03-05T10:23:51.984Z,50.88
2023-03-05T10:26:19.965Z,50.41
2023-03-05T10:28:46.253Z,50.58
2023-03-05T10:31:14.684Z,50.51
2023-03-05T10:33:40.911Z,50.10
2023-03-05T10:36:07.194Z,50.17
2023-03-05T10:38:33.446Z,49.95
2023-03-05T10:40:59.752Z,49.19
2023-03-05T10:43:26.055Z,48.85
2023-03-05T10:45:52.376Z,49.27
2023-03-05T10:48:18.668Z,48.97
2023-03-05T10:50:45.005Z,49.43
2023-03-05T10:53:11.278Z,49.21
2023-03-05T10:55:37.545Z,49.14
2023-03-05T10:58:03.906Z,48.27
2023-03-05T11:00:30.138Z,49.34
2023-03-05T11:02:56.392Z,49.33
2023-03-05T11:05:22.753Z,49.33
2023-03-05T11:07:49.033Z,48.73
2023-03-05T11:10:15.284Z,48.43
2023-03-05T11:12:41.565Z,48.53
2023-03-05T11:15:07.823Z,48.86
2023-03-05T11:17:34.086Z,46.88
2023-03-05T11:20:00.381Z,46.96
2023-03-05T11:22:26.629Z,46.59
2023-03-05T11:24:52.884Z,46.68
2023-03-05T11:27:19.229Z,45.04
2023-03-05T11:29:45.472Z,46.71
2023-03-05T11:32:11.764Z,46.64
2023-03-05T11:34:38.139Z,46.26
2023-03-05T11:37:04.369Z,46.93
2023-03-05T11:39:30.628Z,46.10
2023-03-05T11:41:56.896Z,45.34
2023-03-05T11:44:23.189Z,45.52
2023-03-05T11:46:49.495Z,44.48
2023-03-05T11:49:16.043Z,45.67
2023-03-05T11:51:42.357Z,45.39
2023-03-05T11:54:08.593Z,44.45
2023-03-05T11:56:34.906Z,45.07
2023-03-05T11:59:01.254Z,45.44
2023-03-05T12:01:27.516Z,46.39
2023-03-05T12:03:53.898Z,46.02
2023-03-05T12:06:20.186Z,45.49
2023-03-05T12:08:46.423Z,44.58
2023-03-05T12:11:12.717Z,43.52
2023-03-05T12:13:41.685Z,43.79
2023-03-05T12:16:08.682Z,42.43
2023-03-05T12:18:34.917Z,42.68
2023-03-05T12:21:01.161Z,43.26
2023-03-05T12:23:27.397Z,43.47
2023-03-05T12:25:53.645Z,42.80
2023-03-05T12:28:19.922Z,43.17
2023-03-05T12:30:46.182Z,44.23
2023-03-05T12:33:12.482Z,44.55
2023-03-05T12:35:39.449Z,43.42
2023-03-05T12:38:24.404Z,43.75
2023-03-05T12:40:54.270Z,43.15
2023-03-05T12:43:20.568Z,44.08
2023-03-05T12:45:46.812Z,44.75
2023-03-05T12:48:13.160Z,44.61
2023-03-05T12:50:39.495Z,44.65
2023-03-05T12:53:05.744Z,44.48
2023-03-05T12:55:32.012Z,43.79
2023-03-05T12:57:58.285Z,43.42
2023-03-05T13:00:24.527Z,43.41
2023-03-05T13:02:50.783Z,44.06
2023-03-05T13:05:19.371Z,44.14
2023-03-05T13:07:45.605Z,42.94
2023-03-05T13:10:11.889Z,43.16
2023-03-05T13:12:38.258Z,43.75
2023-03-05T13:15:04.509Z,43.38
2023-03-05T13:17:30.774Z,43.22
2023-03-05T13:19:57.027Z,43.32
2023-03-05T13:22:23.286Z,41.89
2023-03-05T13:24:49.520Z,42.50
2023-03-05T13:27:15.860Z,42.10
2023-03-05T13:29:42.084Z,42.57
2023-03-05T13:32:08.413Z,43.39
2023-03-05T13:34:46.757Z,43.53
2023-03-05T13:37:13.670Z,42.61
2023-03-05T13:39:39.957Z,43.05
2023-03-05T13:42:06.194Z,43.55
2023-03-05T13:44:32.417Z,43.36
2023-03-05T13:46:59.721Z,44.99
2023-03-05T13:49:26.018Z,44.79
2023-03-05T13:51:52.271Z,44.76
2023-03-05T13:54:18.905Z,45.10
2023-03-05T13:56:45.205Z,44.10
2023-03-05T13:59:11.456Z,46.42
2023-03-05T14:01:37.698Z,47.57
2023-03-05T14:04:04.030Z,47.24
2023-03-05T14:06:30.251Z,47.01
2023-03-05T14:08:58.471Z,48.02
2023-03-05T14:11:25.632Z,47.95
2023-03-05T14:13:52.008Z,46.05
2023-03-05T14:16:18.341Z,46.09
2023-03-05T14:18:44.651Z,45.87
2023-03-05T14:21:10.897Z,45.48
2023-03-05T14:23:37.261Z,46.57
2023-03-05T14:26:03.501Z,46.79
2023-03-05T14:28:29.749Z,46.64
2023-03-05T14:30:56.080Z,47.04
2023-03-05T14:33:22.417Z,46.79
2023-03-05T14:35:48.724Z,46.92
2023-03-05T14:38:15.003Z,45.93
2023-03-05T14:40:41.231Z,46.87
2023-03-05T14:43:07.570Z,47.62
2023-03-05T14:45:33.875Z,48.15
2023-03-05T14:48:00.458Z,48.41
2023-03-05T14:50:26.793Z,48.10
2023-03-05T14:52:53.059Z,47.74
2023-03-05T14:55:19.288Z,47.90
2023-03-05T14:57:45.556Z,47.46
2023-03-05T15:00:11.907Z,47.26
2023-03-05T15:02:38.175Z,46.37
2023-03-05T15:05:04.472Z,45.52
2023-03-05T15:07:30.740Z,45.24
2023-03-05T15:09:56.980Z,45.58
2023-03-05T15:12:23.267Z,44.75
2023-03-05T15:14:52.620Z,44.38
2023-03-05T15:17:18.880Z,44.28
2023-03-05T15:19:45.124Z,44.45
2023-03-05T15:22:11.360Z,44.96
2023-03-05T15:24:37.643Z,45.29
2023-03-05T15:27:03.877Z,45.76
2023-03-05T15:29:30.136Z,45.74
2023-03-05T15:31:56.363Z,46.00
2023-03-05T15:34:22.897Z,46.25
2023-03-05T15:36:49.138Z,46.71
2023-03-05T15:39:15.409Z,49.49
2023-03-05T15:41:41.642Z,49.37
2023-03-05T15:44:07.876Z,48.99
2023-03-05T15:46:34.127Z,48.58
2023-03-05T15:49:00.387Z,48.73
2023-03-05T15:51:26.621Z,48.97
2023-03-05T15:53:52.840Z,47.69
2023-03-05T15:56:19.124Z,47.28
2023-03-05T15:58:45.431Z,46.90
2023-03-05T16:01:11.697Z,47.00
2023-03-05T16:03:38.019Z,47.10
2023-03-05T16:06:04.320Z,47.20
2023-03-05T16:08:30.572Z,47.35
2023-03-05T16:10:56.823Z,47.56
2023-03-05T16:13:23.075Z,46.08
2023-03-05T16:15:49.332Z,45.58
2023-03-05T16:18:15.605Z,44.75
2023-03-05T16:20:42.054Z,44.77
2023-03-05T16:23:08.307Z,44.73
2023-03-05T16:25:34.944Z,44.82
2023-03-05T16:28:01.208Z,44.53
2023-03-05T16:30:27.494Z,44.30
2023-03-05T16:32:54.000Z,43.98
2023-03-05T16:35:20.307Z,43.59
2023-03-05T16:37:46.542Z,42.75
2023-03-05T16:40:12.781Z,43.77
2023-03-05T16:42:39.064Z,47.96
2023-03-05T16:45:05.297Z,48.23
2023-03-05T16:47:31.527Z,47.97
2023-03-05T16:49:57.772Z,47.69
2023-03-05T16:52:24.021Z,48.51
2023-03-05T16:54:50.263Z,48.30
2023-03-05T16:57:16.522Z,48.45
2023-03-05T16:59:42.773Z,47.48
2023-03-05T17:02:09.051Z,47.99
2023-03-05T17:04:35.371Z,48.45
2023-03-05T17:07:01.632Z,48.47
2023-03-05T17:09:27.933Z,49.26
2023-03-05T17:11:55.024Z,49.22
2023-03-05T17:14:21.281Z,49.46
2023-03-05T17:16:47.615Z,48.57
2023-03-05T17:19:13.944Z,47.66
2023-03-05T17:21:42.318Z,47.96
2023-03-05T17:24:09.058Z,48.19
2023-03-05T17:26:35.377Z,48.41
2023-03-05T17:29:01.684Z,48.73
2023-03-05T17:31:27.990Z,48.62
2023-03-05T17:33:54.275Z,48.94
2023-03-05T17:36:20.566Z,48.53
2023-03-05T17:38:46.811Z,48.56
2023-03-05T17:41:13.075Z,48.45
2023-03-05T17:43:39.326Z,48.14
2023-03-05T17:46:05.608Z,49.08
2023-03-05T17:48:32.039Z,49.49
2023-03-05T17:50:58.350Z,50.91
2023-03-05T17:53:24.590Z,51.17
2023-03-05T17:55:50.885Z,51.13
2023-03-05T17:58:17.180Z,50.80
2023-03-05T18:00:43.437Z,50.82
2023-03-05T18:03:09.716Z,50.43
2023-03-05T18:05:36.028Z,50.39
2023-03-05T18:08:02.514Z,50.18
2023-03-05T18:10:30.660Z,50.14
2023-03-05T18:12:56.942Z,49.81
2023-03-05T18:15:23.182Z,49.63
2023-03-05T18:17:49.471Z,50.55
2023-03-05T18:20:15.795Z,50.96
2023-03-05T18:22:42.029Z,50.95
2023-03-05T18:25:08.313Z,51.05
2023-03-05T18:27:34.591Z,50.91
2023-03-05T18:30:02.805Z,51.08
2023-03-05T18:32:29.195Z,51.10
2023-03-05T18:34:55.429Z,50.62
2023-03-05T18:37:21.672Z,50.65
2023-03-05T18:39:47.930Z,50.90
2023-03-05T18:42:14.152Z,50.83
2023-03-05T18:44:40.435Z,51.50
2023-03-05T18:47:06.735Z,51.50
2023-03-05T18:49:33.001Z,51.51
2023-03-05T18:51:59.303Z,51.69
2023-03-05T18:54:25.528Z,52.08
2023-03-05T18:56:52.009Z,52.50
2023-03-05T18:59:18.304Z,52.34
2023-03-05T19:01:44.624Z,52.56
2023-03-05T19:04:10.936Z,52.86
2023-03-05T19:06:37.242Z,53.30
2023-03-05T19:09:03.561Z,53.31
2023-03-05T19:11:29.790Z,53.14
2023-03-05T19:13:56.115Z,53.14
2023-03-05T19:16:22.398Z,53.28
2023-03-05T19:18:48.638Z,53.23
2023-03-05T19:21:14.914Z,54.28
2023-03-05T19:23:41.310Z,54.24
2023-03-05T19:26:07.543Z,54.19
2023-03-05T19:28:33.779Z,53.68
2023-03-05T19:31:00.133Z,52.99
2023-03-05T19:33:26.420Z,51.83
2023-03-05T19:35:52.840Z,51.02
2023-03-05T19:38:19.112Z,51.16
2023-03-05T19:40:45.340Z,50.58
2023-03-05T19:43:11.577Z,50.09
2023-03-05T19:45:37.912Z,49.79
2023-03-05T19:48:04.154Z,49.85
2023-03-05T19:50:31.139Z,50.31
2023-03-05T19:52:58.102Z,50.01
2023-03-05T19:55:24.357Z,50.11
2023-03-05T19:57:50.592Z,49.98
2023-03-05T20:00:16.900Z,49.29
2023-03-05T20:02:43.132Z,49.13
2023-03-05T20:05:09.356Z,48.76
2023-03-05T20:07:35.596Z,48.53
2023-03-05T20:10:01.861Z,49.56
2023-03-05T20:12:28.126Z,50.58
2023-03-05T20:14:54.359Z,51.59
2023-03-05T20:17:20.612Z,52.31
2023-03-05T20:19:46.837Z,52.54
2023-03-05T20:22:13.060Z,52.83
2023-03-05T20:24:39.371Z,52.98
2023-03-05T20:27:05.632Z,53.12
2023-03-05T20:29:31.883Z,53.92
2023-03-05T20:31:58.136Z,53.82
2023-03-05T20:34:24.376Z,53.04
2023-03-05T20:36:50.633Z,52.48
2023-03-05T20:39:16.897Z,51.18
2023-03-05T20:41:43.152Z,51.12
2023-03-05T20:44:09.492Z,50.51
2023-03-05T20:46:35.789Z,49.84
2023-03-05T20:49:02.084Z,49.64
2023-03-05T20:51:28.353Z,49.95
2023-03-05T20:53:54.612Z,50.18
2023-03-05T20:56:20.844Z,50.42
2023-03-05T20:58:47.088Z,50.23
2023-03-05T21:01:13.428Z,49.98
2023-03-05T21:03:39.744Z,50.66
2023-03-05T21:06:05.995Z,50.39
2023-03-05T21:08:32.248Z,50.94
2023-03-05T21:10:58.480Z,50.21
2023-03-05T21:13:26.749Z,49.61
2023-03-05T21:15:53.062Z,49.17
2023-03-05T21:18:19.297Z,49.79
2023-03-05T21:20:45.544Z,50.36
2023-03-05T21:23:11.811Z,51.30
2023-03-05T21:25:38.064Z,51.56
2023-03-05T21:28:04.298Z,52.54
2023-03-05T21:30:30.522Z,52.42
2023-03-05T21:32:56.752Z,52.08
2023-03-05T21:35:23.070Z,52.67
2023-03-05T21:37:49.335Z,52.83
2023-03-05T21:40:15.590Z,52.15
2023-03-05T21:42:41.844Z,51.89
2023-03-05T21:45:08.084Z,51.14
2023-03-05T21:47:34.328Z,51.03
2023-03-05T21:50:00.733Z,50.66
2023-03-05T21:52:26.994Z,50.45
2023-03-05T21:54:53.232Z,49.86
2023-03-05T21:57:19.456Z,49.71
2023-03-05T21:59:45.759Z,51.07
2023-03-05T22:02:12.010Z,52.20
2023-03-05T22:04:38.284Z,52.30
2023-03-05T22:07:06.411Z,52.06
2023-03-05T22:09:32.786Z,51.74
2023-03-05T22:11:59.086Z,51.53
2023-03-05T22:14:25.668Z,50.79
2023-03-05T22:16:51.954Z,50.90
2023-03-05T22:19:18.271Z,51.00
2023-03-05T22:21:44.562Z,51.50
2023-03-05T22:24:10.816Z,51.77
2023-03-05T22:26:37.091Z,51.46
2023-03-05T22:29:03.347Z,51.66
2023-03-05T22:31:29.632Z,51.72
2023-03-05T22:33:55.866Z,51.31
2023-03-05T22:36:22.112Z,51.34
2023-03-05T22:38:48.367Z,51.27
2023-03-05T22:41:14.609Z,51.23
2023-03-05T22:43:40.869Z,51.49
2023-03-05T22:46:07.097Z,51.06
2023-03-05T22:48:33.413Z,50.95
2023-03-05T22:50:59.649Z,50.74
2023-03-05T22:53:25.872Z,50.48
2023-03-05T22:55:52.125Z,50.42
2023-03-05T22:58:18.409Z,50.67
2023-03-05T23:00:44.706Z,50.69
2023-03-05T23:03:10.991Z,50.45
2023-03-05T23:05:37.308Z,49.91
2023-03-05T23:08:03.550Z,49.83
2023-03-05T23:10:29.787Z,49.76
2023-03-05T23:12:56.025Z,49.83
2023-03-05T23:15:24.339Z,50.47
2023-03-05T23:17:50.568Z,50.85
2023-03-05T23:20:16.940Z,50.91
2023-03-05T23:22:43.243Z,51.49
2023-03-05T23:25:09.879Z,51.82
2023-03-05T23:27:36.109Z,51.94
2023-03-05T23:30:02.386Z,52.65
2023-03-05T23:32:28.689Z,52.45
2023-03-05T23:34:54.957Z,52.45
2023-03-05T23:37:21.181Z,52.40
2023-03-05T23:39:47.417Z,52.10
2023-03-05T23:42:13.680Z,52.33
2023-03-05T23:44:39.947Z,52.24
2023-03-05T23:47:06.200Z,52.00
2023-03-05T23:49:32.488Z,51.22
2023-03-05T23:51:58.830Z,50.08
2023-03-05T23:54:25.137Z,49.55
2023-03-05T23:56:51.394Z,49.63
2023-03-05T23:59:17.650Z,49.84
